Time;durP1;ratioP1;P1;durP2;ratioP2;P2;SDS_P1;SDS_P2;PMS_P1;PMS_P2;Temp;Humidity;BMP_temperature;BMP_pressure;BME280_temperature;BME280_humidity;BME280_pressure;Samples;Min_cycle;Max_cycle;Signal;HPM_P1;HPM_P2
2023/09/22 00:00:05;;;;;;;8.23;3.30;;;13.40;99.90;;;;;;5028792;28;20087;-71
2023/09/22 00:02:31;;;;;;;8.02;3.05;;;13.50;99.90;;;;;;5029205;28;20057;-70
2023/09/22 00:04:57;;;;;;;7.95;3.83;;;13.20;99.90;;;;;;5026079;28;20045;-71
2023/09/22 00:07:22;;;;;;;10.27;3.78;;;13.50;99.90;;;;;;5028548;28;20473;-71
2023/09/22 00:09:49;;;;;;;8.75;3.90;;;13.40;99.90;;;;;;5012615;28;20033;-70
2023/09/22 00:12:15;;;;;;;12.45;5.30;;;13.50;99.90;;;;;;5042524;28;20033;-71
2023/09/22 00:14:40;;;;;;;13.15;4.63;;;13.50;99.90;;;;;;5048507;28;20123;-70
2023/09/22 00:17:06;;;;;;;12.38;4.65;;;13.50;99.90;;;;;;5032395;28;20037;-70
2023/09/22 00:19:32;;;;;;;12.88;5.45;;;13.50;99.90;;;;;;5046495;28;20132;-69
2023/09/22 00:21:57;;;;;;;9.20;4.72;;;13.70;99.90;;;;;;5047303;28;20720;-71
2023/09/22 00:24:23;;;;;;;13.02;5.00;;;13.30;99.90;;;;;;5048789;28;20123;-70
2023/09/22 00:26:48;;;;;;;12.68;5.25;;;13.30;99.90;;;;;;5032454;28;20392;-71
2023/09/22 00:29:14;;;;;;;17.10;5.65;;;13.70;99.90;;;;;;5036394;28;20708;-71
2023/09/22 00:31:39;;;;;;;16.92;5.85;;;13.70;99.90;;;;;;5011073;28;20037;-70
2023/09/22 00:34:05;;;;;;;20.13;7.20;;;13.70;99.90;;;;;;5028885;28;20042;-71
2023/09/22 00:36:33;;;;;;;19.20;7.25;;;13.80;99.90;;;;;;5025498;28;20414;-71
2023/09/22 00:38:59;;;;;;;33.38;8.05;;;13.50;99.90;;;;;;5028616;28;20088;-70
2023/09/22 00:41:24;;;;;;;26.40;7.57;;;13.90;99.90;;;;;;5012400;28;20037;-71
2023/09/22 00:43:50;;;;;;;17.17;7.13;;;13.90;99.90;;;;;;5031773;28;20040;-71
2023/09/22 00:46:21;;;;;;;42.78;9.18;;;13.40;99.90;;;;;;5046660;28;20033;-71
2023/09/22 00:48:48;;;;;;;26.92;9.98;;;13.50;99.90;;;;;;5048436;28;20044;-70
2023/09/22 00:51:14;;;;;;;22.80;8.98;;;14.00;99.90;;;;;;5044476;28;20055;-69
2023/09/22 00:53:40;;;;;;;31.95;11.02;;;13.60;99.90;;;;;;5048483;28;20036;-70
2023/09/22 00:56:07;;;;;;;37.95;14.38;;;14.00;99.90;;;;;;5048861;28;20199;-70
2023/09/22 00:58:33;;;;;;;34.35;13.27;;;13.90;99.90;;;;;;5048783;28;20453;-70
2023/09/22 01:00:59;;;;;;;36.20;14.07;;;13.90;99.90;;;;;;5045570;28;20396;-70
2023/09/22 01:03:24;;;;;;;38.10;13.48;;;14.10;99.90;;;;;;5048093;28;20063;-71
2023/09/22 01:05:50;;;;;;;40.75;13.90;;;13.90;99.90;;;;;;5046114;28;20067;-71
2023/09/22 01:08:16;;;;;;;47.65;15.75;;;13.70;99.90;;;;;;5047637;28;20076;-71
2023/09/22 01:10:46;;;;;;;40.38;14.45;;;14.10;99.90;;;;;;5048004;28;20091;-70
2023/09/22 01:13:12;;;;;;;39.38;14.98;;;14.00;99.90;;;;;;5048617;28;20079;-70
2023/09/22 01:15:42;;;;;;;38.78;14.93;;;13.80;99.90;;;;;;5047849;28;20543;-70
2023/09/22 01:18:10;;;;;;;41.00;15.32;;;13.80;99.90;;;;;;5039242;28;20077;-70
2023/09/22 01:20:45;;;;;;;33.97;13.63;;;14.10;99.90;;;;;;5013818;28;20052;-71
2023/09/22 01:23:12;;;;;;;32.67;13.80;;;14.00;99.90;;;;;;5031248;28;20522;-70
2023/09/22 01:25:42;;;;;;;39.47;15.57;;;14.10;99.90;;;;;;5032833;28;20366;-71
2023/09/22 01:28:08;;;;;;;31.65;14.10;;;13.80;99.90;;;;;;5032666;28;20045;-73
2023/09/22 01:30:34;;;;;;;36.10;15.30;;;14.10;99.90;;;;;;5031598;28;20049;-72
2023/09/22 01:33:04;;;;;;;33.47;14.77;;;14.00;99.90;;;;;;5032261;28;20505;-70
2023/09/22 01:35:33;;;;;;;33.22;14.40;;;14.20;99.90;;;;;;5013362;28;20110;-72
2023/09/22 01:38:09;;;;;;;34.30;14.05;;;13.90;99.90;;;;;;5030639;28;20041;-70
2023/09/22 01:40:35;;;;;;;37.35;14.88;;;13.80;99.90;;;;;;5032100;28;20037;-73
2023/09/22 01:43:00;;;;;;;34.80;14.18;;;13.90;99.90;;;;;;5032182;28;20540;-72
2023/09/22 01:45:26;;;;;;;32.42;14.18;;;13.90;99.90;;;;;;5031492;28;20038;-71
2023/09/22 01:47:51;;;;;;;34.92;14.35;;;14.10;99.90;;;;;;5031775;28;20049;-71
2023/09/22 01:50:17;;;;;;;38.08;15.43;;;13.80;99.90;;;;;;5029057;28;20048;-71
2023/09/22 01:52:44;;;;;;;40.78;15.30;;;13.70;99.90;;;;;;5030439;28;20123;-71
2023/09/22 01:55:09;;;;;;;37.22;15.30;;;13.80;99.90;;;;;;5051994;28;20369;-72
2023/09/22 01:57:35;;;;;;;33.05;14.70;;;14.10;99.90;;;;;;5051758;28;20056;-74
2023/09/22 02:00:10;;;;;;;36.45;14.48;;;14.00;99.90;;;;;;5051293;28;20045;-72
2023/09/22 02:02:36;;;;;;;35.35;14.80;;;13.80;99.90;;;;;;5034957;28;20049;-71
2023/09/22 02:05:02;;;;;;;40.33;15.27;;;13.70;99.90;;;;;;5048891;28;20260;-67
2023/09/22 02:07:28;;;;;;;34.67;15.65;;;14.00;99.90;;;;;;5033912;28;20083;-69
2023/09/22 02:09:53;;;;;;;37.65;15.43;;;13.90;99.90;;;;;;5015906;28;20469;-68
2023/09/22 02:12:19;;;;;;;34.63;14.25;;;13.90;99.90;;;;;;5031530;28;20393;-69
2023/09/22 02:14:44;;;;;;;36.33;14.98;;;13.90;99.90;;;;;;5030929;28;20045;-70
2023/09/22 02:17:10;;;;;;;40.92;15.65;;;13.60;99.90;;;;;;5031466;28;20124;-71
2023/09/22 02:19:38;;;;;;;30.33;13.85;;;13.60;99.90;;;;;;5030417;28;20045;-70
2023/09/22 02:22:03;;;;;;;33.17;14.32;;;13.70;99.90;;;;;;5031777;28;20075;-71
2023/09/22 02:24:29;;;;;;;37.03;15.25;;;13.60;99.90;;;;;;5031064;28;20448;-71
2023/09/22 02:26:54;;;;;;;49.17;16.05;;;13.50;99.90;;;;;;5031577;28;20335;-70
2023/09/22 02:29:20;;;;;;;37.75;15.98;;;13.50;99.90;;;;;;5014165;28;20074;-70
2023/09/22 02:31:45;;;;;;;35.15;15.00;;;13.70;99.90;;;;;;5030804;28;20131;-71
2023/09/22 02:34:11;;;;;;;33.67;15.45;;;13.70;99.90;;;;;;5031390;28;20128;-71
2023/09/22 02:36:37;;;;;;;34.38;15.38;;;13.70;99.90;;;;;;5027666;28;20325;-70
2023/09/22 02:39:03;;;;;;;39.53;15.23;;;13.50;99.90;;;;;;5031038;28;20508;-72
2023/09/22 02:41:29;;;;;;;40.33;15.68;;;13.50;99.90;;;;;;5013593;28;20041;-72
2023/09/22 02:43:56;;;;;;;35.47;15.57;;;13.70;99.90;;;;;;5034317;28;20433;-71
2023/09/22 02:46:22;;;;;;;43.63;16.33;;;13.60;99.90;;;;;;5033409;28;20090;-71
2023/09/22 02:48:48;;;;;;;35.30;15.50;;;13.70;99.90;;;;;;5051202;28;20119;-70
2023/09/22 02:51:14;;;;;;;40.65;15.27;;;13.70;99.90;;;;;;5030428;28;20488;-69
2023/09/22 02:53:39;;;;;;;37.63;16.27;;;13.60;99.90;;;;;;5050437;28;20076;-71
2023/09/22 02:56:05;;;;;;;39.63;15.32;;;13.80;99.90;;;;;;5033889;28;20048;-71
2023/09/22 02:58:32;;;;;;;36.80;15.45;;;13.60;99.90;;;;;;5031359;28;20045;-71
2023/09/22 03:00:57;;;;;;;31.98;14.05;;;13.60;99.90;;;;;;5030203;28;20044;-71
2023/09/22 03:03:23;;;;;;;35.55;15.25;;;13.60;99.90;;;;;;5030420;28;20492;-73
2023/09/22 03:05:49;;;;;;;33.13;14.27;;;13.50;99.90;;;;;;5011544;28;20142;-73
2023/09/22 03:08:14;;;;;;;40.22;15.48;;;13.50;99.90;;;;;;5029817;28;20052;-69
2023/09/22 03:10:40;;;;;;;36.95;15.95;;;13.70;99.90;;;;;;5030283;28;20065;-71
2023/09/22 03:13:05;;;;;;;34.10;15.07;;;13.60;99.90;;;;;;5031602;28;20048;-71
2023/09/22 03:15:33;;;;;;;36.45;15.48;;;13.60;99.90;;;;;;5029929;28;20044;-71
2023/09/22 03:17:59;;;;;;;36.03;15.15;;;13.70;99.90;;;;;;5030090;28;20088;-68
2023/09/22 03:20:25;;;;;;;39.97;16.30;;;13.40;99.90;;;;;;5027227;28;20124;-70
2023/09/22 03:22:51;;;;;;;38.42;15.25;;;13.70;99.90;;;;;;5029310;28;20045;-72
2023/09/22 03:25:17;;;;;;;39.05;16.35;;;13.60;99.90;;;;;;5030177;28;20041;-70
2023/09/22 03:27:43;;;;;;;42.30;15.85;;;13.50;99.90;;;;;;5030463;28;20124;-70
2023/09/22 03:30:10;;;;;;;40.08;14.93;;;13.70;99.90;;;;;;5029408;28;20033;-70
2023/09/22 03:32:35;;;;;;;40.03;15.40;;;13.60;99.90;;;;;;5030122;28;20481;-72
2023/09/22 03:35:07;;;;;;;44.33;16.13;;;13.50;99.90;;;;;;5027611;28;20050;-70
2023/09/22 03:37:33;;;;;;;46.13;16.02;;;13.50;99.90;;;;;;5029095;28;20128;-70
2023/09/22 03:40:09;;;;;;;43.65;15.23;;;13.40;99.90;;;;;;5028666;28;20037;-70
2023/09/22 03:42:35;;;;;;;41.80;15.60;;;13.40;99.90;;;;;;5046780;28;20083;-70
2023/09/22 03:45:00;;;;;;;43.55;15.73;;;13.40;99.90;;;;;;5025544;28;20040;-70
2023/09/22 03:47:27;;;;;;;40.05;14.93;;;13.40;99.90;;;;;;5046488;28;20136;-71
2023/09/22 03:49:52;;;;;;;48.88;16.33;;;13.40;99.90;;;;;;5027131;28;20071;-71
2023/09/22 03:52:18;;;;;;;53.42;15.45;;;13.50;99.90;;;;;;5012249;28;20362;-70
2023/09/22 03:54:43;;;;;;;40.05;15.80;;;13.40;99.90;;;;;;5029932;28;20430;-70
2023/09/22 03:57:09;;;;;;;40.03;15.02;;;13.30;99.90;;;;;;5030009;28;20133;-70
2023/09/22 03:59:35;;;;;;;37.60;16.48;;;13.30;99.90;;;;;;5029328;28;20068;-70
2023/09/22 04:02:00;;;;;;;40.83;16.67;;;13.30;99.90;;;;;;5029168;28;20381;-71
2023/09/22 04:04:29;;;;;;;52.08;15.85;;;13.20;99.90;;;;;;5028388;28;20056;-69
2023/09/22 04:06:56;;;;;;;40.88;16.17;;;13.30;99.90;;;;;;5028047;28;20442;-71
2023/09/22 04:09:21;;;;;;;37.75;15.85;;;13.40;99.90;;;;;;5029283;28;20064;-71
2023/09/22 04:11:47;;;;;;;42.60;16.27;;;13.20;99.90;;;;;;5029356;28;20154;-70
2023/09/22 04:14:12;;;;;;;41.85;15.82;;;13.30;99.90;;;;;;5029395;28;20539;-70
2023/09/22 04:16:38;;;;;;;40.40;15.98;;;13.40;99.90;;;;;;5028580;28;20088;-70
2023/09/22 04:19:04;;;;;;;40.45;14.82;;;13.40;99.90;;;;;;5029182;28;20377;-70
2023/09/22 04:21:29;;;;;;;42.08;15.23;;;13.30;99.90;;;;;;5024916;28;20041;-72
2023/09/22 04:23:58;;;;;;;38.83;16.02;;;13.20;99.90;;;;;;5029027;28;20041;-68
2023/09/22 04:26:30;;;;;;;41.72;15.27;;;13.30;99.90;;;;;;5029348;28;20037;-72
2023/09/22 04:28:56;;;;;;;45.03;16.05;;;13.30;99.90;;;;;;5029511;28;20163;-70
2023/09/22 04:31:24;;;;;;;40.30;15.30;;;13.30;99.90;;;;;;5011620;28;20124;-70
2023/09/22 04:33:51;;;;;;;46.25;16.20;;;13.20;99.90;;;;;;5012451;28;20125;-70
2023/09/22 04:36:21;;;;;;;38.80;15.20;;;13.20;99.90;;;;;;5025527;28;20111;-69
2023/09/22 04:38:51;;;;;;;36.25;15.30;;;13.20;99.90;;;;;;5048660;28;20045;-70
2023/09/22 04:41:20;;;;;;;35.65;13.98;;;13.10;99.90;;;;;;5048833;28;20481;-71
2023/09/22 04:43:46;;;;;;;43.65;15.00;;;13.10;99.90;;;;;;5046225;28;20123;-70
2023/09/22 04:46:12;;;;;;;43.17;14.88;;;13.10;99.90;;;;;;5027863;28;20045;-71
2023/09/22 04:48:39;;;;;;;46.85;15.02;;;13.00;99.90;;;;;;5045457;28;20038;-70
2023/09/22 04:51:05;;;;;;;36.67;15.75;;;13.00;99.90;;;;;;5025182;28;20108;-70
2023/09/22 04:53:32;;;;;;;39.45;15.35;;;12.90;99.90;;;;;;5028095;28;20037;-70
2023/09/22 04:56:04;;;;;;;41.28;15.20;;;12.80;99.90;;;;;;5028349;28;20045;-70
2023/09/22 04:58:31;;;;;;;41.13;15.55;;;12.80;99.90;;;;;;5028767;28;20042;-71
2023/09/22 05:00:58;;;;;;;43.15;14.98;;;12.90;99.90;;;;;;5028336;28;20572;-70
2023/09/22 05:03:26;;;;;;;42.58;16.17;;;12.90;99.90;;;;;;5028121;28;20441;-70
2023/09/22 05:05:53;;;;;;;42.80;16.40;;;13.00;99.90;;;;;;5025967;28;20052;-70
2023/09/22 05:08:19;;;;;;;41.33;17.02;;;12.90;99.90;;;;;;5026648;28;20045;-70
2023/09/22 05:10:49;;;;;;;45.28;15.20;;;12.80;99.90;;;;;;5027577;28;20099;-70
2023/09/22 05:13:18;;;;;;;47.00;16.35;;;12.90;99.90;;;;;;5028294;28;20037;-72
2023/09/22 05:15:44;;;;;;;41.08;15.75;;;12.90;99.90;;;;;;5028189;28;20048;-70
2023/09/22 05:18:14;;;;;;;50.67;15.95;;;12.80;99.90;;;;;;5011183;28;20482;-69
2023/09/22 05:20:43;;;;;;;52.28;17.15;;;12.80;99.90;;;;;;5025598;28;20394;-71
2023/09/22 05:23:09;;;;;;;51.35;17.27;;;12.70;99.90;;;;;;5027282;28;20038;-70
2023/09/22 05:25:41;;;;;;;60.85;18.77;;;12.60;99.90;;;;;;5028743;28;20034;-71
2023/09/22 05:28:10;;;;;;;56.00;18.88;;;12.60;99.90;;;;;;5011826;28;20159;-70
2023/09/22 05:30:38;;;;;;;51.40;18.95;;;12.60;99.90;;;;;;5027716;28;20136;-70
2023/09/22 05:33:06;;;;;;;63.97;20.45;;;12.50;99.90;;;;;;5028524;28;20091;-70
2023/09/22 05:35:32;;;;;;;57.65;19.67;;;12.50;99.90;;;;;;5025686;28;20174;-70
2023/09/22 05:37:58;;;;;;;68.13;21.05;;;12.50;99.90;;;;;;5010770;28;20073;-70
2023/09/22 05:40:26;;;;;;;64.97;21.15;;;12.60;99.90;;;;;;5028034;28;20072;-70
2023/09/22 05:42:51;;;;;;;54.90;19.85;;;12.60;99.90;;;;;;5028578;28;20045;-70
2023/09/22 05:45:17;;;;;;;56.45;21.35;;;12.60;99.90;;;;;;5027260;28;20045;-70
2023/09/22 05:47:42;;;;;;;53.08;19.65;;;12.60;99.90;;;;;;5028337;28;20049;-70
2023/09/22 05:50:10;;;;;;;58.75;20.02;;;12.60;99.90;;;;;;5025152;28;20044;-67
2023/09/22 05:52:37;;;;;;;59.95;20.17;;;12.60;99.90;;;;;;5026888;28;20048;-70
2023/09/22 05:55:04;;;;;;;54.00;19.00;;;12.60;99.90;;;;;;5027913;28;20048;-69
2023/09/22 05:57:29;;;;;;;47.85;19.38;;;12.60;99.90;;;;;;5011771;28;20037;-69
2023/09/22 05:59:57;;;;;;;50.17;20.08;;;12.60;99.90;;;;;;5010980;28;20488;-71
2023/09/22 06:02:23;;;;;;;45.35;18.38;;;12.60;99.90;;;;;;5027370;28;20057;-71
2023/09/22 06:04:52;;;;;;;49.83;19.70;;;12.60;99.90;;;;;;5028141;28;20772;-69
2023/09/22 06:07:20;;;;;;;45.92;17.50;;;12.60;99.90;;;;;;5030793;28;20602;-68
2023/09/22 06:09:45;;;;;;;47.67;18.10;;;12.60;99.90;;;;;;5030875;28;20052;-70
2023/09/22 06:12:11;;;;;;;43.50;16.73;;;12.50;99.90;;;;;;5031587;28;20049;-70
2023/09/22 06:14:38;;;;;;;42.20;17.55;;;12.60;99.90;;;;;;5030819;28;20038;-71
2023/09/22 06:17:04;;;;;;;45.08;18.00;;;12.60;99.90;;;;;;5031222;28;20111;-68
2023/09/22 06:19:29;;;;;;;41.65;17.55;;;12.50;99.90;;;;;;5029283;28;20092;-69
2023/09/22 06:21:55;;;;;;;42.42;16.83;;;12.60;99.90;;;;;;5029538;28;20487;-70
2023/09/22 06:24:20;;;;;;;42.50;17.17;;;12.60;99.90;;;;;;5031087;28;20458;-70
2023/09/22 06:26:46;;;;;;;42.67;16.13;;;12.60;99.90;;;;;;5031102;28;20049;-70
2023/09/22 06:29:12;;;;;;;46.90;17.48;;;12.60;99.90;;;;;;5032703;28;20704;-71
2023/09/22 06:31:38;;;;;;;38.47;14.90;;;12.70;99.90;;;;;;5030018;28;20064;-71
2023/09/22 06:34:05;;;;;;;42.58;15.77;;;12.60;99.90;;;;;;5031396;28;20045;-70
2023/09/22 06:36:30;;;;;;;40.67;15.32;;;12.60;99.90;;;;;;5027247;28;20579;-71
2023/09/22 06:38:56;;;;;;;38.53;15.75;;;12.70;99.90;;;;;;5030756;28;20148;-71
2023/09/22 06:41:21;;;;;;;41.40;15.65;;;12.70;99.90;;;;;;5014222;28;20082;-71
2023/09/22 06:43:47;;;;;;;36.22;14.63;;;12.80;99.90;;;;;;5039388;28;20143;-72
2023/09/22 06:46:14;;;;;;;38.05;15.20;;;12.70;99.90;;;;;;5031264;28;20046;-70
2023/09/22 06:48:39;;;;;;;35.03;14.38;;;12.70;99.90;;;;;;5030171;28;20038;-70
2023/09/22 06:51:06;;;;;;;31.10;13.32;;;12.80;99.90;;;;;;5037099;28;20538;-69
2023/09/22 06:53:34;;;;;;;37.78;15.10;;;12.90;99.90;;;;;;5049386;28;20049;-69
2023/09/22 06:56:10;;;;;;;32.13;13.93;;;12.90;99.90;;;;;;5050007;28;20049;-71
2023/09/22 06:58:38;;;;;;;32.15;13.82;;;12.80;99.90;;;;;;5027675;28;20077;-71
2023/09/22 07:01:14;;;;;;;32.95;13.70;;;12.90;99.90;;;;;;5029505;28;20518;-70
2023/09/22 07:03:41;;;;;;;29.52;14.00;;;12.90;99.90;;;;;;5028239;28;20139;-76
2023/09/22 07:06:08;;;;;;;29.20;13.73;;;12.80;99.90;;;;;;5028318;28;20037;-70
2023/09/22 07:08:34;;;;;;;30.70;13.40;;;12.90;99.90;;;;;;5029399;28;20086;-71
2023/09/22 07:11:04;;;;;;;28.98;13.68;;;13.00;99.90;;;;;;5030303;28;20160;-70
2023/09/22 07:13:31;;;;;;;29.00;13.45;;;13.00;99.90;;;;;;5023655;28;20049;-70
2023/09/22 07:15:57;;;;;;;25.83;11.88;;;13.00;99.90;;;;;;5029606;28;20041;-71
2023/09/22 07:18:24;;;;;;;25.60;11.50;;;13.00;99.90;;;;;;5049254;28;20040;-72
2023/09/22 07:20:50;;;;;;;30.63;13.10;;;13.00;99.90;;;;;;5046765;28;20036;-72
2023/09/22 07:23:16;;;;;;;25.13;12.10;;;13.10;99.90;;;;;;5044037;28;20115;-74
2023/09/22 07:25:41;;;;;;;26.70;12.57;;;13.00;99.90;;;;;;5033992;28;20521;-74
2023/09/22 07:28:08;;;;;;;26.23;11.57;;;13.10;99.90;;;;;;5046163;28;20480;-73
2023/09/22 07:30:34;;;;;;;26.35;11.82;;;13.00;99.90;;;;;;5028680;28;20429;-72
2023/09/22 07:33:00;;;;;;;23.63;11.38;;;13.00;99.90;;;;;;5029366;28;20073;-72
2023/09/22 07:35:26;;;;;;;25.60;10.82;;;13.10;99.90;;;;;;5026832;28;20128;-70
2023/09/22 07:37:52;;;;;;;27.38;11.55;;;13.10;99.90;;;;;;5042561;28;20124;-72
2023/09/22 07:40:17;;;;;;;25.77;12.25;;;13.10;99.90;;;;;;5028920;28;20037;-73
2023/09/22 07:42:44;;;;;;;23.63;11.55;;;13.20;99.90;;;;;;5029609;28;20161;-71
2023/09/22 07:45:11;;;;;;;22.60;11.50;;;13.20;99.90;;;;;;5031308;28;20047;-73
2023/09/22 07:47:38;;;;;;;22.95;11.07;;;13.20;99.90;;;;;;5028554;28;20401;-71
2023/09/22 07:50:06;;;;;;;27.17;12.27;;;13.20;99.90;;;;;;5027942;28;20041;-71
2023/09/22 07:52:32;;;;;;;25.77;10.75;;;13.30;99.90;;;;;;5043407;28;20042;-72
2023/09/22 07:55:00;;;;;;;22.85;10.95;;;13.30;99.90;;;;;;5028925;28;20103;-72
2023/09/22 07:57:30;;;;;;;23.08;11.52;;;13.30;99.90;;;;;;5029550;28;20450;-75
2023/09/22 07:59:56;;;;;;;21.70;10.77;;;13.30;99.90;;;;;;5028260;28;20069;-71
2023/09/22 08:02:22;;;;;;;22.15;10.32;;;13.30;99.90;;;;;;5028623;28;20049;-72
2023/09/22 08:04:48;;;;;;;25.08;10.13;;;13.30;99.90;;;;;;5026284;28;20077;-71
2023/09/22 08:07:13;;;;;;;17.80;10.07;;;13.40;99.90;;;;;;5022700;28;20079;-72
2023/09/22 08:09:40;;;;;;;17.13;9.90;;;13.40;99.90;;;;;;5016141;28;20037;-71
2023/09/22 08:12:07;;;;;;;19.50;9.20;;;13.40;99.90;;;;;;5044964;28;20136;-70
2023/09/22 08:14:34;;;;;;;22.17;9.93;;;13.50;99.90;;;;;;5027649;28;20052;-71
2023/09/22 08:17:04;;;;;;;21.45;9.52;;;13.50;99.90;;;;;;5028219;28;20405;-72
2023/09/22 08:19:30;;;;;;;15.48;8.98;;;13.60;99.90;;;;;;5026293;28;20038;-69
2023/09/22 08:21:57;;;;;;;15.77;8.90;;;13.60;99.90;;;;;;5026424;28;20072;-72
2023/09/22 08:24:23;;;;;;;22.50;9.02;;;13.60;99.90;;;;;;5016334;28;20037;-70
2023/09/22 08:26:49;;;;;;;17.25;9.30;;;13.70;99.90;;;;;;5047659;28;20843;-71
2023/09/22 08:29:15;;;;;;;15.77;8.23;;;13.80;99.90;;;;;;5048115;28;20109;-71
2023/09/22 08:31:40;;;;;;;16.52;8.13;;;13.80;99.90;;;;;;5046787;28;20507;-71
2023/09/22 08:34:06;;;;;;;15.73;8.15;;;13.70;99.90;;;;;;5045211;28;20048;-70
2023/09/22 08:36:33;;;;;;;15.35;8.38;;;13.80;99.90;;;;;;5026988;28;20041;-72
2023/09/22 08:38:59;;;;;;;15.82;8.25;;;13.70;99.90;;;;;;5038175;28;20033;-71
2023/09/22 08:41:26;;;;;;;14.77;8.35;;;13.70;99.90;;;;;;5029232;28;20509;-70
2023/09/22 08:43:53;;;;;;;17.88;9.00;;;13.80;99.90;;;;;;5043893;28;20764;-69
2023/09/22 08:46:19;;;;;;;12.85;7.35;;;13.80;99.90;;;;;;5026718;28;20045;-70
2023/09/22 08:48:45;;;;;;;11.40;6.78;;;13.80;99.90;;;;;;5027922;28;20037;-70
2023/09/22 08:51:10;;;;;;;10.07;6.45;;;13.80;99.90;;;;;;5025758;28;20535;-70
2023/09/22 08:53:36;;;;;;;12.38;6.13;;;13.90;99.90;;;;;;5041672;28;20059;-72
2023/09/22 08:56:04;;;;;;;14.13;5.88;;;14.00;99.90;;;;;;5029246;28;20530;-70
2023/09/22 08:58:30;;;;;;;8.90;5.50;;;13.80;99.90;;;;;;5029678;28;20060;-70
2023/09/22 09:00:56;;;;;;;10.35;6.72;;;13.80;99.90;;;;;;5027246;28;20038;-72
2023/09/22 09:03:21;;;;;;;10.15;6.00;;;13.80;99.90;;;;;;5039971;28;20158;-70
2023/09/22 09:05:49;;;;;;;10.52;5.65;;;13.90;99.90;;;;;;5028538;28;20152;-68
2023/09/22 09:08:16;;;;;;;9.30;5.38;;;14.00;99.90;;;;;;5029831;28;20074;-71
2023/09/22 09:10:45;;;;;;;10.43;5.78;;;14.10;99.90;;;;;;5030673;28;20154;-70
2023/09/22 09:13:19;;;;;;;10.32;5.70;;;14.10;99.90;;;;;;5037097;28;20485;-71
2023/09/22 09:15:47;;;;;;;9.73;5.40;;;14.00;99.90;;;;;;5026863;28;20354;-70
2023/09/22 09:18:17;;;;;;;10.07;5.18;;;14.00;99.90;;;;;;5043776;28;20045;-69
2023/09/22 09:20:44;;;;;;;6.78;4.60;;;14.20;99.90;;;;;;5024703;28;20536;-70
2023/09/22 09:23:16;;;;;;;6.22;4.10;;;14.20;99.90;;;;;;5026545;28;20124;-69
2023/09/22 09:25:50;;;;;;;5.88;4.03;;;14.20;99.90;;;;;;5027655;28;20729;-69
2023/09/22 09:28:17;;;;;;;5.68;3.70;;;14.20;99.90;;;;;;5040703;28;20041;-69
2023/09/22 09:30:57;;;;;;;5.63;3.53;;;14.30;99.90;;;;;;5026962;28;20519;-69
2023/09/22 09:33:30;;;;;;;4.15;2.85;;;14.20;99.90;;;;;;5017844;28;20137;-69
2023/09/22 09:35:58;;;;;;;4.30;2.45;;;14.00;99.90;;;;;;5041029;28;20071;-68
2023/09/22 09:38:26;;;;;;;5.00;2.60;;;13.80;99.90;;;;;;5039853;28;20063;-69
2023/09/22 09:40:52;;;;;;;2.85;2.28;;;13.60;99.90;;;;;;5014877;28;20504;-69
2023/09/22 09:43:18;;;;;;;4.80;2.40;;;13.60;99.90;;;;;;5031468;28;20037;-69
2023/09/22 09:45:56;;;;;;;5.32;2.40;;;13.50;99.90;;;;;;5032800;28;20037;-69
2023/09/22 09:48:22;;;;;;;6.75;2.58;;;13.50;99.90;;;;;;5031055;28;20045;-69
2023/09/22 09:50:51;;;;;;;3.40;2.38;;;13.60;99.90;;;;;;5028016;28;20079;-69
2023/09/22 09:53:36;;;;;;;4.00;2.10;;;13.70;99.90;;;;;;5029852;28;20049;-69
2023/09/22 09:56:03;;;;;;;3.22;2.20;;;13.70;99.90;;;;;;5032980;28;20041;-68
2023/09/22 09:58:32;;;;;;;2.90;2.00;;;13.80;99.90;;;;;;5045784;28;20033;-71
2023/09/22 10:01:00;;;;;;;3.97;2.20;;;13.90;99.90;;;;;;5023328;28;20119;-69
2023/09/22 10:03:27;;;;;;;5.22;2.15;;;13.90;99.90;;;;;;5037481;28;20166;-68
2023/09/22 10:05:55;;;;;;;3.90;2.03;;;14.10;99.90;;;;;;5027935;28;20060;-68
2023/09/22 10:08:23;;;;;;;3.75;2.00;;;14.20;99.90;;;;;;5017859;28;20080;-68
2023/09/22 10:10:51;;;;;;;3.25;1.60;;;14.30;99.90;;;;;;5033966;28;20121;-70
2023/09/22 10:13:17;;;;;;;1.77;1.50;;;14.20;99.90;;;;;;5050696;28;20055;-68
2023/09/22 10:15:52;;;;;;;4.90;1.63;;;14.20;99.90;;;;;;5034324;28;20124;-68
2023/09/22 10:18:18;;;;;;;3.78;1.70;;;14.30;99.90;;;;;;5030485;28;20053;-67
2023/09/22 10:20:45;;;;;;;3.05;1.50;;;14.30;99.90;;;;;;5028703;28;20044;-69
2023/09/22 10:23:29;;;;;;;3.38;1.33;;;14.40;99.90;;;;;;5029811;28;20037;-68
2023/09/22 10:26:15;;;;;;;3.10;1.70;;;14.50;99.90;;;;;;5014208;28;20155;-67
2023/09/22 10:28:41;;;;;;;3.65;1.90;;;14.50;99.90;;;;;;5037900;28;20045;-67
2023/09/22 10:31:07;;;;;;;3.17;1.20;;;14.50;99.90;;;;;;5038848;28;20461;-67
2023/09/22 10:33:33;;;;;;;2.72;1.27;;;14.50;99.90;;;;;;5044923;28;20125;-68
2023/09/22 10:36:00;;;;;;;1.38;1.00;;;14.50;99.90;;;;;;5013599;28;20042;-67
2023/09/22 10:38:26;;;;;;;4.85;1.30;;;14.30;99.90;;;;;;5035359;28;20091;-67
2023/09/22 10:41:03;;;;;;;2.88;1.15;;;14.30;99.90;;;;;;5033766;28;20084;-68
2023/09/22 10:43:30;;;;;;;2.92;1.20;;;14.40;99.90;;;;;;5033866;28;20037;-66
2023/09/22 10:45:56;;;;;;;0.88;0.68;;;14.50;99.90;;;;;;5046978;28;20044;-68
2023/09/22 10:48:22;;;;;;;2.83;1.02;;;14.50;99.90;;;;;;5050286;28;20105;-67
2023/09/22 10:50:53;;;;;;;1.58;1.02;;;14.60;99.90;;;;;;5040249;28;20377;-68
2023/09/22 10:53:20;;;;;;;3.00;1.25;;;14.80;99.90;;;;;;5043177;28;20098;-67
2023/09/22 10:55:46;;;;;;;2.60;0.80;;;15.00;99.90;;;;;;5050148;28;20053;-66
2023/09/22 10:58:16;;;;;;;2.45;0.90;;;15.30;99.90;;;;;;5030533;28;20053;-66
2023/09/22 11:00:54;;;;;;;1.98;0.80;;;15.30;99.90;;;;;;5029561;28;20072;-68
2023/09/22 11:03:19;;;;;;;2.53;1.00;;;15.60;99.90;;;;;;5029883;28;20054;-70
2023/09/22 11:05:55;;;;;;;1.80;0.98;;;15.80;99.90;;;;;;5043345;28;20056;-68
2023/09/22 11:08:20;;;;;;;2.45;0.90;;;15.90;99.90;;;;;;5029306;28;20064;-70
2023/09/22 11:10:51;;;;;;;2.72;1.10;;;15.80;99.90;;;;;;5030163;28;20041;-68
2023/09/22 11:13:18;;;;;;;2.40;0.93;;;15.80;99.90;;;;;;5042346;28;20140;-69
2023/09/22 11:15:57;;;;;;;1.73;0.80;;;15.80;99.90;;;;;;5033498;28;20076;-68
2023/09/22 11:18:29;;;;;;;2.22;0.98;;;15.80;99.90;;;;;;5029869;28;20041;-68
2023/09/22 11:20:56;;;;;;;1.42;0.90;;;15.70;99.90;;;;;;5027211;28;20064;-68
2023/09/22 11:23:24;;;;;;;1.65;1.00;;;15.90;99.90;;;;;;5041645;28;20128;-68
2023/09/22 11:26:02;;;;;;;1.58;0.88;;;16.20;99.90;;;;;;5032825;28;20124;-69
2023/09/22 11:28:28;;;;;;;2.00;1.15;;;16.30;99.90;;;;;;5036828;28;20095;-68
2023/09/22 11:30:54;;;;;;;2.15;1.10;;;16.50;99.90;;;;;;5040000;28;20334;-68
2023/09/22 11:33:20;;;;;;;3.38;1.00;;;16.50;99.90;;;;;;5031165;28;20038;-69
2023/09/22 11:35:46;;;;;;;2.42;1.10;;;16.70;99.90;;;;;;5010376;28;20454;-68
2023/09/22 11:38:29;;;;;;;2.67;0.88;;;16.90;99.90;;;;;;5044115;28;20053;-69
2023/09/22 11:41:16;;;;;;;2.08;0.90;;;17.20;99.90;;;;;;5040138;28;20041;-68
2023/09/22 11:43:46;;;;;;;1.75;0.82;;;17.30;99.90;;;;;;5028935;28;20042;-69
2023/09/22 11:46:16;;;;;;;;;;;17.20;99.90;;;;;;5015591;28;20114;-68
2023/09/22 11:49:05;;;;;;;3.28;0.80;;;17.00;99.90;;;;;;5026729;28;19929;-69
2023/09/22 11:51:54;;;;;;;1.42;0.80;;;16.90;99.90;;;;;;5022380;28;20103;-69
2023/09/22 11:54:22;;;;;;;0.70;0.70;;;16.50;99.90;;;;;;5032806;28;20102;-68
2023/09/22 11:56:50;;;;;;;1.55;0.73;;;16.50;99.90;;;;;;5022210;28;20041;-68
2023/09/22 11:59:17;;;;;;;1.80;0.70;;;16.50;99.90;;;;;;5037104;28;20041;-70
2023/09/22 12:01:45;;;;;;;1.30;0.93;;;16.50;99.90;;;;;;5032388;28;20120;-69
2023/09/22 12:04:11;;;;;;;4.20;1.10;;;16.50;99.90;;;;;;5027118;28;20046;-69
2023/09/22 12:06:40;;;;;;;1.35;0.90;;;16.50;99.90;;;;;;5018525;28;20481;-69
2023/09/22 12:09:06;;;;;;;3.20;1.10;;;16.50;99.90;;;;;;5035442;28;20049;-70
2023/09/22 12:11:32;;;;;;;1.70;0.90;;;16.50;99.90;;;;;;5023713;28;20044;-69
2023/09/22 12:13:58;;;;;;;1.88;1.17;;;16.60;99.90;;;;;;5036815;28;20086;-69
2023/09/22 12:16:24;;;;;;;2.38;0.98;;;16.80;99.90;;;;;;5026402;28;20048;-68
2023/09/22 12:18:50;;;;;;;3.75;1.20;;;16.90;99.90;;;;;;5040474;28;20034;-70
2023/09/22 12:21:15;;;;;;;1.70;1.10;;;16.90;99.90;;;;;;5037577;28;20037;-68
2023/09/22 12:23:41;;;;;;;2.58;1.33;;;16.90;99.90;;;;;;5032938;28;20037;-69
2023/09/22 12:26:06;;;;;;;1.73;1.50;;;16.90;99.90;;;;;;5047628;28;20028;-68
2023/09/22 12:28:32;;;;;;;2.85;1.20;;;16.70;99.90;;;;;;5026125;28;20100;-69
2023/09/22 12:30:57;;;;;;;1.90;1.40;;;16.70;99.90;;;;;;5037379;28;20248;-70
2023/09/22 12:33:23;;;;;;;3.10;1.40;;;16.60;99.90;;;;;;5033329;28;20438;-68